Terminal Aerodrome Forecast
Issued by NWS

Home | Current Version | Previous Version | Text Only | Print | Product List | Glossary On
Versions: 1 2 3 4 5 6 7 8 9 10 11 12 13 14
430
FTUS42 KTAE 220617 AAA
TAFDHN
TAF AMD
KDHN 220617Z 2206/2306 36006KT 1SM BR OVC003
     FM221400 36007KT P6SM OVC025
     FM222100 36007KT P6SM OVC050=

USA.gov is the U.S. government's official web portal to all federal, state and local government web resources and services.